sensor_id;sensor_type;location;lat;lon;timestamp;temperature;humidity
60313;DHT22;46158;52.850;6.970;2024-03-22T00:00:31;15.50;77.80
60313;DHT22;46158;52.850;6.970;2024-03-22T00:02:57;15.40;77.80
60313;DHT22;46158;52.850;6.970;2024-03-22T00:05:22;15.40;77.70
60313;DHT22;46158;52.850;6.970;2024-03-22T00:07:48;15.40;77.70
60313;DHT22;46158;52.850;6.970;2024-03-22T00:10:14;15.40;77.70
60313;DHT22;46158;52.850;6.970;2024-03-22T00:12:40;15.40;77.70
60313;DHT22;46158;52.850;6.970;2024-03-22T00:15:06;15.40;77.70
60313;DHT22;46158;52.850;6.970;2024-03-22T00:17:32;15.40;77.70
60313;DHT22;46158;52.850;6.970;2024-03-22T00:20:00;15.40;77.60
60313;DHT22;46158;52.850;6.970;2024-03-22T00:22:25;15.30;77.60
60313;DHT22;46158;52.850;6.970;2024-03-22T00:24:51;15.40;77.60
60313;DHT22;46158;52.850;6.970;2024-03-22T00:27:16;15.30;77.60
60313;DHT22;46158;52.850;6.970;2024-03-22T00:29:44;15.30;77.50
60313;DHT22;46158;52.850;6.970;2024-03-22T00:32:10;15.30;77.50
60313;DHT22;46158;52.850;6.970;2024-03-22T00:34:35;15.30;77.40
60313;DHT22;46158;52.850;6.970;2024-03-22T00:37:01;15.30;77.40
60313;DHT22;46158;52.850;6.970;2024-03-22T00:39:27;15.30;77.40
60313;DHT22;46158;52.850;6.970;2024-03-22T00:41:52;15.30;77.40
60313;DHT22;46158;52.850;6.970;2024-03-22T00:44:18;15.30;77.30
60313;DHT22;46158;52.850;6.970;2024-03-22T00:46:43;15.30;77.30
60313;DHT22;46158;52.850;6.970;2024-03-22T00:49:09;15.30;77.40
60313;DHT22;46158;52.850;6.970;2024-03-22T00:51:35;15.30;77.30
60313;DHT22;46158;52.850;6.970;2024-03-22T00:54:00;15.30;77.30
60313;DHT22;46158;52.850;6.970;2024-03-22T00:56:26;15.20;77.20
60313;DHT22;46158;52.850;6.970;2024-03-22T00:58:51;15.30;77.30
60313;DHT22;46158;52.850;6.970;2024-03-22T01:01:17;15.30;77.20
60313;DHT22;46158;52.850;6.970;2024-03-22T01:03:43;15.30;77.20
60313;DHT22;46158;52.850;6.970;2024-03-22T01:06:08;15.20;77.10
60313;DHT22;46158;52.850;6.970;2024-03-22T01:08:34;15.20;77.10
60313;DHT22;46158;52.850;6.970;2024-03-22T01:11:00;15.20;77.10
60313;DHT22;46158;52.850;6.970;2024-03-22T01:13:25;15.20;77.10
60313;DHT22;46158;52.850;6.970;2024-03-22T01:15:51;15.20;77.10
60313;DHT22;46158;52.850;6.970;2024-03-22T01:18:16;15.20;77.10
60313;DHT22;46158;52.850;6.970;2024-03-22T01:20:43;15.20;77.10
60313;DHT22;46158;52.850;6.970;2024-03-22T01:23:08;15.20;77.10
60313;DHT22;46158;52.850;6.970;2024-03-22T01:25:34;15.10;77.00
60313;DHT22;46158;52.850;6.970;2024-03-22T01:28:00;15.10;77.00
60313;DHT22;46158;52.850;6.970;2024-03-22T01:30:25;15.20;77.10
60313;DHT22;46158;52.850;6.970;2024-03-22T01:32:54;15.20;77.00
60313;DHT22;46158;52.850;6.970;2024-03-22T01:35:20;15.10;76.90
60313;DHT22;46158;52.850;6.970;2024-03-22T01:37:46;15.10;76.90
60313;DHT22;46158;52.850;6.970;2024-03-22T01:40:13;15.10;76.90
60313;DHT22;46158;52.850;6.970;2024-03-22T01:42:38;15.10;76.90
60313;DHT22;46158;52.850;6.970;2024-03-22T01:45:04;15.10;76.90
60313;DHT22;46158;52.850;6.970;2024-03-22T01:47:30;15.10;76.90
60313;DHT22;46158;52.850;6.970;2024-03-22T01:49:57;15.10;76.90
60313;DHT22;46158;52.850;6.970;2024-03-22T01:52:23;15.10;76.80
60313;DHT22;46158;52.850;6.970;2024-03-22T01:54:49;15.10;76.80
60313;DHT22;46158;52.850;6.970;2024-03-22T01:57:15;15.10;76.80
60313;DHT22;46158;52.850;6.970;2024-03-22T01:59:41;15.10;76.80
60313;DHT22;46158;52.850;6.970;2024-03-22T02:02:07;15.10;76.80
60313;DHT22;46158;52.850;6.970;2024-03-22T02:04:33;15.10;76.80
60313;DHT22;46158;52.850;6.970;2024-03-22T02:06:58;15.00;76.80
60313;DHT22;46158;52.850;6.970;2024-03-22T02:09:25;15.00;76.80
60313;DHT22;46158;52.850;6.970;2024-03-22T02:11:51;15.00;76.80
60313;DHT22;46158;52.850;6.970;2024-03-22T02:14:16;15.00;76.80
60313;DHT22;46158;52.850;6.970;2024-03-22T02:16:42;15.00;76.80
60313;DHT22;46158;52.850;6.970;2024-03-22T02:19:08;15.00;76.80
60313;DHT22;46158;52.850;6.970;2024-03-22T02:21:34;15.00;76.70
60313;DHT22;46158;52.850;6.970;2024-03-22T02:24:00;15.00;76.70
60313;DHT22;46158;52.850;6.970;2024-03-22T02:26:26;15.00;76.70
60313;DHT22;46158;52.850;6.970;2024-03-22T02:28:51;15.00;76.70
60313;DHT22;46158;52.850;6.970;2024-03-22T02:31:17;15.00;76.70
60313;DHT22;46158;52.850;6.970;2024-03-22T02:33:42;15.00;76.70
60313;DHT22;46158;52.850;6.970;2024-03-22T02:36:09;15.00;76.70
60313;DHT22;46158;52.850;6.970;2024-03-22T02:38:34;15.00;76.70
60313;DHT22;46158;52.850;6.970;2024-03-22T02:41:00;15.00;76.70
60313;DHT22;46158;52.850;6.970;2024-03-22T02:43:26;14.90;76.70
60313;DHT22;46158;52.850;6.970;2024-03-22T02:45:51;14.90;76.60
60313;DHT22;46158;52.850;6.970;2024-03-22T02:48:17;14.90;76.60
60313;DHT22;46158;52.850;6.970;2024-03-22T02:50:43;14.90;76.60
60313;DHT22;46158;52.850;6.970;2024-03-22T02:53:08;14.90;76.60
60313;DHT22;46158;52.850;6.970;2024-03-22T02:55:38;14.90;76.60
60313;DHT22;46158;52.850;6.970;2024-03-22T02:58:04;14.90;76.50
60313;DHT22;46158;52.850;6.970;2024-03-22T03:00:31;14.90;76.50
60313;DHT22;46158;52.850;6.970;2024-03-22T03:02:57;14.90;76.60
60313;DHT22;46158;52.850;6.970;2024-03-22T03:05:22;14.90;76.60
60313;DHT22;46158;52.850;6.970;2024-03-22T03:07:49;14.90;76.50
60313;DHT22;46158;52.850;6.970;2024-03-22T03:10:16;14.90;76.60
60313;DHT22;46158;52.850;6.970;2024-03-22T03:12:42;14.90;76.50
60313;DHT22;46158;52.850;6.970;2024-03-22T03:15:07;14.80;76.50
60313;DHT22;46158;52.850;6.970;2024-03-22T03:17:33;14.90;76.60
60313;DHT22;46158;52.850;6.970;2024-03-22T03:19:59;14.80;76.50
60313;DHT22;46158;52.850;6.970;2024-03-22T03:22:24;14.80;76.50
60313;DHT22;46158;52.850;6.970;2024-03-22T03:24:50;14.80;76.50
60313;DHT22;46158;52.850;6.970;2024-03-22T03:27:15;14.80;76.50
60313;DHT22;46158;52.850;6.970;2024-03-22T03:29:41;14.80;76.50
60313;DHT22;46158;52.850;6.970;2024-03-22T03:32:07;14.80;76.50
60313;DHT22;46158;52.850;6.970;2024-03-22T03:34:32;14.80;76.50
60313;DHT22;46158;52.850;6.970;2024-03-22T03:36:58;14.80;76.50
60313;DHT22;46158;52.850;6.970;2024-03-22T03:39:26;14.80;76.50
60313;DHT22;46158;52.850;6.970;2024-03-22T03:41:51;14.80;76.50
60313;DHT22;46158;52.850;6.970;2024-03-22T03:44:17;14.80;77.20
60313;DHT22;46158;52.850;6.970;2024-03-22T03:46:43;14.80;76.50
60313;DHT22;46158;52.850;6.970;2024-03-22T03:49:08;14.80;76.50
60313;DHT22;46158;52.850;6.970;2024-03-22T03:51:34;14.80;76.50
60313;DHT22;46158;52.850;6.970;2024-03-22T03:53:59;14.80;76.50
60313;DHT22;46158;52.850;6.970;2024-03-22T03:56:25;14.80;76.50
60313;DHT22;46158;52.850;6.970;2024-03-22T03:58:50;14.70;77.10
60313;DHT22;46158;52.850;6.970;2024-03-22T04:01:16;14.70;76.40
60313;DHT22;46158;52.850;6.970;2024-03-22T04:03:43;14.80;76.50
60313;DHT22;46158;52.850;6.970;2024-03-22T04:06:09;14.70;76.40
60313;DHT22;46158;52.850;6.970;2024-03-22T04:08:34;14.70;77.10
60313;DHT22;46158;52.850;6.970;2024-03-22T04:11:00;14.70;76.40
60313;DHT22;46158;52.850;6.970;2024-03-22T04:13:26;14.70;76.50
60313;DHT22;46158;52.850;6.970;2024-03-22T04:15:53;14.70;77.10
60313;DHT22;46158;52.850;6.970;2024-03-22T04:18:18;14.70;76.50
60313;DHT22;46158;52.850;6.970;2024-03-22T04:20:53;14.70;76.50
60313;DHT22;46158;52.850;6.970;2024-03-22T04:23:19;14.70;76.30
60313;DHT22;46158;52.850;6.970;2024-03-22T04:25:55;14.60;76.40
60313;DHT22;46158;52.850;6.970;2024-03-22T04:28:21;14.70;76.40
60313;DHT22;46158;52.850;6.970;2024-03-22T04:31:02;14.70;77.20
60313;DHT22;46158;52.850;6.970;2024-03-22T04:33:29;14.70;76.40
60313;DHT22;46158;52.850;6.970;2024-03-22T04:35:55;14.60;76.40
60313;DHT22;46158;52.850;6.970;2024-03-22T04:38:25;14.70;76.50
60313;DHT22;46158;52.850;6.970;2024-03-22T04:40:51;14.60;76.40
60313;DHT22;46158;52.850;6.970;2024-03-22T04:43:17;14.60;76.40
60313;DHT22;46158;52.850;6.970;2024-03-22T04:45:43;14.60;76.40
60313;DHT22;46158;52.850;6.970;2024-03-22T04:48:09;14.60;76.40
60313;DHT22;46158;52.850;6.970;2024-03-22T04:50:35;14.60;76.30
60313;DHT22;46158;52.850;6.970;2024-03-22T04:53:01;14.60;76.30
60313;DHT22;46158;52.850;6.970;2024-03-22T04:55:27;14.60;76.40
60313;DHT22;46158;52.850;6.970;2024-03-22T04:57:53;14.60;76.30
60313;DHT22;46158;52.850;6.970;2024-03-22T05:00:19;14.60;76.40
60313;DHT22;46158;52.850;6.970;2024-03-22T05:02:44;14.60;76.30
60313;DHT22;46158;52.850;6.970;2024-03-22T05:05:11;14.60;76.40
60313;DHT22;46158;52.850;6.970;2024-03-22T05:07:37;14.60;76.30
60313;DHT22;46158;52.850;6.970;2024-03-22T05:10:04;14.60;76.40
60313;DHT22;46158;52.850;6.970;2024-03-22T05:12:29;14.60;76.40
60313;DHT22;46158;52.850;6.970;2024-03-22T05:14:55;14.60;76.30
60313;DHT22;46158;52.850;6.970;2024-03-22T05:17:21;14.60;76.40
60313;DHT22;46158;52.850;6.970;2024-03-22T05:19:47;14.60;76.40
60313;DHT22;46158;52.850;6.970;2024-03-22T05:22:12;14.60;76.30
60313;DHT22;46158;52.850;6.970;2024-03-22T05:24:38;14.50;76.30
60313;DHT22;46158;52.850;6.970;2024-03-22T05:27:04;14.50;76.30
60313;DHT22;46158;52.850;6.970;2024-03-22T05:29:29;14.60;76.30
60313;DHT22;46158;52.850;6.970;2024-03-22T05:31:55;14.50;76.30
60313;DHT22;46158;52.850;6.970;2024-03-22T05:34:20;14.50;76.30
60313;DHT22;46158;52.850;6.970;2024-03-22T05:36:46;14.50;76.30
60313;DHT22;46158;52.850;6.970;2024-03-22T05:39:12;14.50;76.30
60313;DHT22;46158;52.850;6.970;2024-03-22T05:41:38;14.50;76.30
60313;DHT22;46158;52.850;6.970;2024-03-22T05:44:04;14.50;76.30
60313;DHT22;46158;52.850;6.970;2024-03-22T05:46:30;14.50;76.30
60313;DHT22;46158;52.850;6.970;2024-03-22T05:48:59;14.50;76.30
60313;DHT22;46158;52.850;6.970;2024-03-22T05:51:25;14.50;76.20
60313;DHT22;46158;52.850;6.970;2024-03-22T05:53:51;14.50;76.20
60313;DHT22;46158;52.850;6.970;2024-03-22T05:56:17;14.50;76.20
60313;DHT22;46158;52.850;6.970;2024-03-22T05:58:42;14.50;76.10
60313;DHT22;46158;52.850;6.970;2024-03-22T06:01:08;14.50;76.10
60313;DHT22;46158;52.850;6.970;2024-03-22T06:03:34;14.50;76.20
60313;DHT22;46158;52.850;6.970;2024-03-22T06:06:00;14.50;76.30
60313;DHT22;46158;52.850;6.970;2024-03-22T06:08:26;14.50;76.30
60313;DHT22;46158;52.850;6.970;2024-03-22T06:10:54;14.50;76.30
60313;DHT22;46158;52.850;6.970;2024-03-22T06:13:19;14.50;76.30
60313;DHT22;46158;52.850;6.970;2024-03-22T06:15:48;14.50;76.40
60313;DHT22;46158;52.850;6.970;2024-03-22T06:18:14;14.50;76.40
60313;DHT22;46158;52.850;6.970;2024-03-22T06:20:39;14.50;76.50
60313;DHT22;46158;52.850;6.970;2024-03-22T06:23:05;14.40;76.40
60313;DHT22;46158;52.850;6.970;2024-03-22T06:25:30;14.50;76.50
60313;DHT22;46158;52.850;6.970;2024-03-22T06:27:56;14.50;76.50
60313;DHT22;46158;52.850;6.970;2024-03-22T06:30:22;14.50;76.50
60313;DHT22;46158;52.850;6.970;2024-03-22T06:32:47;14.50;76.50
60313;DHT22;46158;52.850;6.970;2024-03-22T06:35:13;14.40;76.50
60313;DHT22;46158;52.850;6.970;2024-03-22T06:37:40;14.40;76.50
60313;DHT22;46158;52.850;6.970;2024-03-22T06:40:09;14.50;76.60
60313;DHT22;46158;52.850;6.970;2024-03-22T06:42:35;14.50;76.60
60313;DHT22;46158;52.850;6.970;2024-03-22T06:45:01;14.40;76.60
60313;DHT22;46158;52.850;6.970;2024-03-22T06:47:28;14.50;76.70
60313;DHT22;46158;52.850;6.970;2024-03-22T06:49:53;14.50;76.70
60313;DHT22;46158;52.850;6.970;2024-03-22T06:52:19;14.40;76.70
60313;DHT22;46158;52.850;6.970;2024-03-22T06:54:45;14.40;76.70
60313;DHT22;46158;52.850;6.970;2024-03-22T06:57:11;14.40;76.70
60313;DHT22;46158;52.850;6.970;2024-03-22T06:59:36;14.40;76.70
60313;DHT22;46158;52.850;6.970;2024-03-22T07:02:02;14.40;76.70
60313;DHT22;46158;52.850;6.970;2024-03-22T07:04:28;14.40;76.70
60313;DHT22;46158;52.850;6.970;2024-03-22T07:06:53;14.40;76.80
60313;DHT22;46158;52.850;6.970;2024-03-22T07:09:19;14.40;76.80
60313;DHT22;46158;52.850;6.970;2024-03-22T07:11:45;14.40;76.80
60313;DHT22;46158;52.850;6.970;2024-03-22T07:14:11;14.40;76.80
60313;DHT22;46158;52.850;6.970;2024-03-22T07:16:36;14.40;76.80
60313;DHT22;46158;52.850;6.970;2024-03-22T07:19:02;14.40;76.90
60313;DHT22;46158;52.850;6.970;2024-03-22T07:21:29;14.40;76.80
60313;DHT22;46158;52.850;6.970;2024-03-22T07:23:55;14.40;76.80
60313;DHT22;46158;52.850;6.970;2024-03-22T07:26:20;14.40;76.90
60313;DHT22;46158;52.850;6.970;2024-03-22T07:28:46;14.40;76.80
60313;DHT22;46158;52.850;6.970;2024-03-22T07:31:12;14.40;76.80
60313;DHT22;46158;52.850;6.970;2024-03-22T07:33:38;14.40;76.80
60313;DHT22;46158;52.850;6.970;2024-03-22T07:36:06;14.40;76.80
60313;DHT22;46158;52.850;6.970;2024-03-22T07:38:31;14.40;76.80
60313;DHT22;46158;52.850;6.970;2024-03-22T07:40:57;14.40;76.80
60313;DHT22;46158;52.850;6.970;2024-03-22T07:43:23;14.40;76.80
60313;DHT22;46158;52.850;6.970;2024-03-22T07:45:48;14.40;76.80
60313;DHT22;46158;52.850;6.970;2024-03-22T07:48:14;14.40;76.80
60313;DHT22;46158;52.850;6.970;2024-03-22T07:50:40;14.40;76.90
60313;DHT22;46158;52.850;6.970;2024-03-22T07:53:06;14.40;76.90
60313;DHT22;46158;52.850;6.970;2024-03-22T07:55:31;14.40;76.90
60313;DHT22;46158;52.850;6.970;2024-03-22T07:57:57;14.30;76.90
60313;DHT22;46158;52.850;6.970;2024-03-22T08:00:23;14.40;76.90
60313;DHT22;46158;52.850;6.970;2024-03-22T08:02:51;14.30;76.90
60313;DHT22;46158;52.850;6.970;2024-03-22T08:05:16;14.30;76.90
60313;DHT22;46158;52.850;6.970;2024-03-22T08:07:42;14.40;76.90
60313;DHT22;46158;52.850;6.970;2024-03-22T08:10:09;14.30;76.80
60313;DHT22;46158;52.850;6.970;2024-03-22T08:12:35;14.30;76.70
60313;DHT22;46158;52.850;6.970;2024-03-22T08:15:01;14.30;76.70
60313;DHT22;46158;52.850;6.970;2024-03-22T08:17:27;14.30;76.70
60313;DHT22;46158;52.850;6.970;2024-03-22T08:19:52;14.30;76.80
60313;DHT22;46158;52.850;6.970;2024-03-22T08:22:18;14.30;76.80
60313;DHT22;46158;52.850;6.970;2024-03-22T08:24:44;14.30;76.80
60313;DHT22;46158;52.850;6.970;2024-03-22T08:27:10;14.30;76.90
60313;DHT22;46158;52.850;6.970;2024-03-22T08:29:35;14.30;76.90
60313;DHT22;46158;52.850;6.970;2024-03-22T08:32:01;14.30;76.90
60313;DHT22;46158;52.850;6.970;2024-03-22T08:34:32;14.30;76.90
60313;DHT22;46158;52.850;6.970;2024-03-22T08:36:58;14.30;77.00
60313;DHT22;46158;52.850;6.970;2024-03-22T08:39:24;14.30;77.00
60313;DHT22;46158;52.850;6.970;2024-03-22T08:41:51;14.30;77.00
60313;DHT22;46158;52.850;6.970;2024-03-22T08:44:17;14.30;77.00
60313;DHT22;46158;52.850;6.970;2024-03-22T08:46:42;14.30;77.00
60313;DHT22;46158;52.850;6.970;2024-03-22T08:49:08;14.20;77.00
60313;DHT22;46158;52.850;6.970;2024-03-22T08:51:33;14.30;77.00
60313;DHT22;46158;52.850;6.970;2024-03-22T08:53:59;14.20;77.10
60313;DHT22;46158;52.850;6.970;2024-03-22T08:56:26;14.20;77.00
60313;DHT22;46158;52.850;6.970;2024-03-22T08:58:52;14.20;77.00
60313;DHT22;46158;52.850;6.970;2024-03-22T09:01:17;14.20;77.00
60313;DHT22;46158;52.850;6.970;2024-03-22T09:03:43;14.20;77.10
60313;DHT22;46158;52.850;6.970;2024-03-22T09:06:12;14.20;77.00
60313;DHT22;46158;52.850;6.970;2024-03-22T09:08:38;14.20;77.00
60313;DHT22;46158;52.850;6.970;2024-03-22T09:11:03;14.20;77.00
60313;DHT22;46158;52.850;6.970;2024-03-22T09:13:29;14.20;77.00
60313;DHT22;46158;52.850;6.970;2024-03-22T09:15:58;14.20;77.00
60313;DHT22;46158;52.850;6.970;2024-03-22T09:18:24;14.20;77.00
60313;DHT22;46158;52.850;6.970;2024-03-22T09:20:50;14.20;77.10
60313;DHT22;46158;52.850;6.970;2024-03-22T09:23:15;14.20;77.00
60313;DHT22;46158;52.850;6.970;2024-03-22T09:25:41;14.20;77.00
60313;DHT22;46158;52.850;6.970;2024-03-22T09:28:06;14.20;77.00
60313;DHT22;46158;52.850;6.970;2024-03-22T09:30:32;14.20;77.00
60313;DHT22;46158;52.850;6.970;2024-03-22T09:32:58;14.20;77.00
60313;DHT22;46158;52.850;6.970;2024-03-22T09:35:23;14.20;77.00
60313;DHT22;46158;52.850;6.970;2024-03-22T09:37:49;14.20;77.10
60313;DHT22;46158;52.850;6.970;2024-03-22T09:40:15;14.20;77.00
60313;DHT22;46158;52.850;6.970;2024-03-22T09:42:42;14.20;77.00
60313;DHT22;46158;52.850;6.970;2024-03-22T09:45:08;14.20;77.10
60313;DHT22;46158;52.850;6.970;2024-03-22T09:47:36;14.20;77.00
60313;DHT22;46158;52.850;6.970;2024-03-22T09:50:06;14.20;77.00
60313;DHT22;46158;52.850;6.970;2024-03-22T09:52:33;14.20;77.00
60313;DHT22;46158;52.850;6.970;2024-03-22T09:54:59;14.20;77.00
60313;DHT22;46158;52.850;6.970;2024-03-22T09:57:25;14.20;77.00
60313;DHT22;46158;52.850;6.970;2024-03-22T09:59:51;14.20;77.00
60313;DHT22;46158;52.850;6.970;2024-03-22T10:02:17;14.20;77.00
60313;DHT22;46158;52.850;6.970;2024-03-22T10:04:43;14.20;77.00
60313;DHT22;46158;52.850;6.970;2024-03-22T10:07:09;14.20;76.90
60313;DHT22;46158;52.850;6.970;2024-03-22T10:09:36;14.20;76.90
60313;DHT22;46158;52.850;6.970;2024-03-22T10:12:02;14.20;76.90
60313;DHT22;46158;52.850;6.970;2024-03-22T10:14:29;14.20;77.00
60313;DHT22;46158;52.850;6.970;2024-03-22T10:16:56;14.20;76.90
60313;DHT22;46158;52.850;6.970;2024-03-22T10:19:22;14.20;76.90
60313;DHT22;46158;52.850;6.970;2024-03-22T10:22:04;14.10;76.90
60313;DHT22;46158;52.850;6.970;2024-03-22T10:24:30;14.20;76.80
60313;DHT22;46158;52.850;6.970;2024-03-22T10:26:58;14.20;76.90
60313;DHT22;46158;52.850;6.970;2024-03-22T10:29:24;14.20;76.90
60313;DHT22;46158;52.850;6.970;2024-03-22T10:31:54;14.20;76.90
60313;DHT22;46158;52.850;6.970;2024-03-22T10:34:21;14.10;76.80
60313;DHT22;46158;52.850;6.970;2024-03-22T10:36:47;14.10;76.80
60313;DHT22;46158;52.850;6.970;2024-03-22T10:39:16;14.10;76.90
60313;DHT22;46158;52.850;6.970;2024-03-22T10:41:47;14.20;76.90
60313;DHT22;46158;52.850;6.970;2024-03-22T10:44:14;14.10;76.90
60313;DHT22;46158;52.850;6.970;2024-03-22T10:46:48;14.10;76.90
60313;DHT22;46158;52.850;6.970;2024-03-22T10:49:17;14.10;76.80
60313;DHT22;46158;52.850;6.970;2024-03-22T10:51:59;14.10;76.80
60313;DHT22;46158;52.850;6.970;2024-03-22T10:54:35;14.10;76.90
60313;DHT22;46158;52.850;6.970;2024-03-22T10:57:02;14.10;76.90
60313;DHT22;46158;52.850;6.970;2024-03-22T10:59:33;14.10;76.90
60313;DHT22;46158;52.850;6.970;2024-03-22T11:02:06;14.10;76.80
60313;DHT22;46158;52.850;6.970;2024-03-22T11:04:32;14.10;76.90
60313;DHT22;46158;52.850;6.970;2024-03-22T11:06:58;14.10;76.90
60313;DHT22;46158;52.850;6.970;2024-03-22T11:09:27;14.10;76.90
60313;DHT22;46158;52.850;6.970;2024-03-22T11:11:54;14.10;76.80
60313;DHT22;46158;52.850;6.970;2024-03-22T11:14:20;14.10;76.80
60313;DHT22;46158;52.850;6.970;2024-03-22T11:16:47;14.10;76.80
60313;DHT22;46158;52.850;6.970;2024-03-22T11:19:13;14.10;76.80
60313;DHT22;46158;52.850;6.970;2024-03-22T11:21:39;14.10;76.80
60313;DHT22;46158;52.850;6.970;2024-03-22T11:24:05;14.10;76.80
60313;DHT22;46158;52.850;6.970;2024-03-22T11:26:32;14.10;76.80
60313;DHT22;46158;52.850;6.970;2024-03-22T11:28:58;14.10;76.80
60313;DHT22;46158;52.850;6.970;2024-03-22T11:31:24;14.10;76.90
60313;DHT22;46158;52.850;6.970;2024-03-22T11:33:53;14.10;76.80
60313;DHT22;46158;52.850;6.970;2024-03-22T11:36:20;14.10;76.90
60313;DHT22;46158;52.850;6.970;2024-03-22T11:38:46;14.10;76.80
60313;DHT22;46158;52.850;6.970;2024-03-22T11:41:20;14.10;76.80
60313;DHT22;46158;52.850;6.970;2024-03-22T11:43:48;14.10;76.80
60313;DHT22;46158;52.850;6.970;2024-03-22T11:46:15;14.10;76.80
60313;DHT22;46158;52.850;6.970;2024-03-22T11:48:41;14.10;76.80
60313;DHT22;46158;52.850;6.970;2024-03-22T11:51:08;14.10;76.80
60313;DHT22;46158;52.850;6.970;2024-03-22T11:53:35;14.10;76.80
60313;DHT22;46158;52.850;6.970;2024-03-22T11:56:02;14.10;76.90
60313;DHT22;46158;52.850;6.970;2024-03-22T11:58:29;14.10;76.90
60313;DHT22;46158;52.850;6.970;2024-03-22T12:00:56;14.00;76.70
60313;DHT22;46158;52.850;6.970;2024-03-22T12:03:22;14.10;76.80
60313;DHT22;46158;52.850;6.970;2024-03-22T12:05:48;14.00;76.70
60313;DHT22;46158;52.850;6.970;2024-03-22T12:08:19;14.10;76.80
60313;DHT22;46158;52.850;6.970;2024-03-22T12:10:45;14.10;76.80
60313;DHT22;46158;52.850;6.970;2024-03-22T12:13:10;14.10;76.70
60313;DHT22;46158;52.850;6.970;2024-03-22T12:15:36;14.10;76.80
60313;DHT22;46158;52.850;6.970;2024-03-22T12:18:02;14.10;76.70
60313;DHT22;46158;52.850;6.970;2024-03-22T12:20:28;14.10;76.80
60313;DHT22;46158;52.850;6.970;2024-03-22T12:22:55;14.00;76.70
60313;DHT22;46158;52.850;6.970;2024-03-22T12:25:20;14.00;76.70
60313;DHT22;46158;52.850;6.970;2024-03-22T12:27:46;14.10;76.80
60313;DHT22;46158;52.850;6.970;2024-03-22T12:30:12;14.10;76.70
60313;DHT22;46158;52.850;6.970;2024-03-22T12:32:38;14.10;76.70
60313;DHT22;46158;52.850;6.970;2024-03-22T12:35:04;14.10;76.70
60313;DHT22;46158;52.850;6.970;2024-03-22T12:37:30;14.10;76.70
60313;DHT22;46158;52.850;6.970;2024-03-22T12:39:55;14.10;76.70
60313;DHT22;46158;52.850;6.970;2024-03-22T12:42:21;14.10;76.70
60313;DHT22;46158;52.850;6.970;2024-03-22T12:44:47;14.10;76.70
60313;DHT22;46158;52.850;6.970;2024-03-22T12:47:12;14.10;76.50
60313;DHT22;46158;52.850;6.970;2024-03-22T12:49:38;14.10;76.40
60313;DHT22;46158;52.850;6.970;2024-03-22T12:52:04;14.10;76.50
60313;DHT22;46158;52.850;6.970;2024-03-22T12:54:30;14.10;76.50
60313;DHT22;46158;52.850;6.970;2024-03-22T12:56:58;14.20;76.60
60313;DHT22;46158;52.850;6.970;2024-03-22T12:59:23;14.20;76.70
60313;DHT22;46158;52.850;6.970;2024-03-22T13:01:49;14.20;76.80
60313;DHT22;46158;52.850;6.970;2024-03-22T13:04:14;14.20;77.00
60313;DHT22;46158;52.850;6.970;2024-03-22T13:06:40;14.20;77.20
60313;DHT22;46158;52.850;6.970;2024-03-22T13:09:06;14.30;77.60
60313;DHT22;46158;52.850;6.970;2024-03-22T13:11:35;14.30;77.80
60313;DHT22;46158;52.850;6.970;2024-03-22T13:14:00;14.30;78.00
60313;DHT22;46158;52.850;6.970;2024-03-22T13:16:26;14.30;78.20
60313;DHT22;46158;52.850;6.970;2024-03-22T13:18:51;14.30;78.40
60313;DHT22;46158;52.850;6.970;2024-03-22T13:21:17;14.30;78.60
60313;DHT22;46158;52.850;6.970;2024-03-22T13:23:43;14.40;78.80
60313;DHT22;46158;52.850;6.970;2024-03-22T13:26:08;14.40;79.00
60313;DHT22;46158;52.850;6.970;2024-03-22T13:28:34;14.40;79.20
60313;DHT22;46158;52.850;6.970;2024-03-22T13:31:02;14.50;79.40
60313;DHT22;46158;52.850;6.970;2024-03-22T13:33:29;14.50;79.50
60313;DHT22;46158;52.850;6.970;2024-03-22T13:35:55;14.50;79.70
60313;DHT22;46158;52.850;6.970;2024-03-22T13:38:21;14.50;79.80
60313;DHT22;46158;52.850;6.970;2024-03-22T13:40:54;14.60;80.00
60313;DHT22;46158;52.850;6.970;2024-03-22T13:43:19;14.70;80.20
60313;DHT22;46158;52.850;6.970;2024-03-22T13:45:46;14.70;80.20
60313;DHT22;46158;52.850;6.970;2024-03-22T13:48:13;14.70;80.20
60313;DHT22;46158;52.850;6.970;2024-03-22T13:50:38;14.80;80.20
60313;DHT22;46158;52.850;6.970;2024-03-22T13:53:04;14.80;80.30
60313;DHT22;46158;52.850;6.970;2024-03-22T13:55:30;14.90;80.40
60313;DHT22;46158;52.850;6.970;2024-03-22T13:57:55;14.90;80.60
60313;DHT22;46158;52.850;6.970;2024-03-22T14:00:21;15.00;80.70
60313;DHT22;46158;52.850;6.970;2024-03-22T14:02:46;14.90;80.70
60313;DHT22;46158;52.850;6.970;2024-03-22T14:05:17;15.00;80.20
60313;DHT22;46158;52.850;6.970;2024-03-22T14:07:43;15.00;79.40
60313;DHT22;46158;52.850;6.970;2024-03-22T14:10:09;15.00;79.80
60313;DHT22;46158;52.850;6.970;2024-03-22T14:12:35;15.00;80.20
60313;DHT22;46158;52.850;6.970;2024-03-22T14:15:00;15.00;80.40
60313;DHT22;46158;52.850;6.970;2024-03-22T14:17:26;15.00;80.40
60313;DHT22;46158;52.850;6.970;2024-03-22T14:19:52;15.00;80.50
60313;DHT22;46158;52.850;6.970;2024-03-22T14:22:18;15.10;80.80
60313;DHT22;46158;52.850;6.970;2024-03-22T14:24:44;15.10;80.80
60313;DHT22;46158;52.850;6.970;2024-03-22T14:27:10;15.10;80.90
60313;DHT22;46158;52.850;6.970;2024-03-22T14:29:36;15.20;81.00
60313;DHT22;46158;52.850;6.970;2024-03-22T14:32:01;15.20;81.00
60313;DHT22;46158;52.850;6.970;2024-03-22T14:34:27;15.20;81.10
60313;DHT22;46158;52.850;6.970;2024-03-22T14:36:53;15.20;81.10
60313;DHT22;46158;52.850;6.970;2024-03-22T14:39:19;15.20;81.10
60313;DHT22;46158;52.850;6.970;2024-03-22T14:41:44;15.30;81.30
60313;DHT22;46158;52.850;6.970;2024-03-22T14:44:10;15.30;81.30
60313;DHT22;46158;52.850;6.970;2024-03-22T14:46:35;15.30;81.40
60313;DHT22;46158;52.850;6.970;2024-03-22T14:49:01;15.30;81.40
60313;DHT22;46158;52.850;6.970;2024-03-22T14:51:26;15.30;81.40
60313;DHT22;46158;52.850;6.970;2024-03-22T14:53:52;15.40;81.50
60313;DHT22;46158;52.850;6.970;2024-03-22T14:56:18;15.40;81.50
60313;DHT22;46158;52.850;6.970;2024-03-22T14:58:43;15.40;81.60
60313;DHT22;46158;52.850;6.970;2024-03-22T15:01:09;15.40;81.60
60313;DHT22;46158;52.850;6.970;2024-03-22T15:03:35;15.50;81.70
60313;DHT22;46158;52.850;6.970;2024-03-22T15:06:01;15.50;81.60
60313;DHT22;46158;52.850;6.970;2024-03-22T15:08:27;15.50;81.70
60313;DHT22;46158;52.850;6.970;2024-03-22T15:10:56;15.60;81.80
60313;DHT22;46158;52.850;6.970;2024-03-22T15:13:22;15.60;81.90
60313;DHT22;46158;52.850;6.970;2024-03-22T15:15:58;15.60;81.90
60313;DHT22;46158;52.850;6.970;2024-03-22T15:18:25;15.60;82.00
60313;DHT22;46158;52.850;6.970;2024-03-22T15:20:52;15.60;81.90
60313;DHT22;46158;52.850;6.970;2024-03-22T15:23:18;15.60;81.90